Pavlos Papadopoulos

Скаут - Panathinaikos
20 Янв 2028
Четверг
Продолжить

Характер

Адаптивность (1) Амбиции (17) Скандальность (20) Верность (13) Стрессоустойчивость (20) Профессионализм (6) Благородство (16) Темперамент (16)

Профиль

Стиль управления Демократичный
Лицензия Континентальная Pro
Решительность 6
Управление людьми 6
Мотивация 5
Дисциплина 11
Удовлетворённость
100%
Усталость
0%
Должность Скаут
Зарплата 90.5K в нед.
Контракт 14.03.2029

Производительность

Поведение Хорошее
Эффективность тренировок
35%
Развитие игроков
60%
Профилактика травм
40%
Тактическая реализация
25%

Недавние события

Проходит курсы повышения квалификации только что
Участвовал в селекционном совещании только что
Рекомендовал трансферную цель только что
Участвовал в селекционном совещании 7 дн. назад
Рекомендовал трансферную цель 7 дн. назад
Проходит курсы повышения квалификации 7 дн. назад
Проходит курсы повышения квалификации 7 дн. назад
Рекомендовал трансферную цель 14 дн. назад

Текущее наблюдение

233
Игрок Клуб Статус Способность Уверенность Наблюдений Последнее наблюдение Последний голос
Danilo Botafogo Активный 147 / 140 40% 1 31.12.2027 -
Teboho Mokoena Independiente Упущен 137 / 132 40% 1 31.12.2027 -
Jay Robinson Southampton Активный 134 / 137 40% 1 19.12.2027 -
Kutlwano Letlhaku Ajax Cape Town Активный 118 / 119 40% 1 19.12.2027 -
Dmitry Pestryakov Dinamo Moscow Активный 113 / 122 40% 1 19.12.2027 -
Mateo Silvetti Los Angeles Football Club Активный 132 / 122 40% 5 18.12.2027 -
Mikkel Hope Haugesund Активный 94 / 114 40% 3 16.12.2027 -
Kauã Elias Anderlecht Активный 139 / 136 40% 2 16.12.2027 -
Jan Virgili Club Brugge Активный 139 / 144 40% 1 16.12.2027 -
Lion Beqiri Falkenberg Активный 101 / 107 40% 2 15.12.2027 -
Santiago López Independiente Активный 115 / 124 40% 3 15.12.2027 -
Maren Kefas Plateau United Активный 98 / 97 40% 5 12.12.2027 -
Hervin Goyes Deportivo Pasto Активный 108 / 114 40% 3 06.12.2027 -
Siyabonga Mabena Chippa United Активный 118 / 129 40% 1 06.12.2027 -
Tiziano Dornell Danubio Активный 113 / 128 40% 3 05.12.2027 -
Kerwin Vargas Seattle Sounders Активный 122 / 126 40% 2 05.12.2027 -
Juan Rocca Gimnasia y Tiro Активный 108 / 110 40% 7 05.12.2027 -
Mateo Peralta Danubio Активный 107 / 124 40% 3 05.12.2027 -
Tomás Aranda Boca Juniors Активный 112 / 122 40% 2 05.12.2027 -
Luca Williams-Barnett Tranmere Rovers Активный 119 / 131 40% 2 05.12.2027 -
Shea Lacey Wolverhampton Активный 135 / 136 40% 1 03.12.2027 -
Rafael Navarro St. Louis CITY SC Активный 124 / 131 40% 3 01.12.2027 -
Duncan McGuire Houston Dynamo Активный 124 / 126 40% 2 01.12.2027 -
Agustín Anello Philadelphia Union Активный 125 / 129 40% 2 01.12.2027 -
Manuel Ospina Cortulua Активный 124 / 132 40% 2 30.11.2027 -
Jefry Zapata Danubio Активный 114 / 120 40% 3 30.11.2027 -
Esteban da Silva Racing Активный 111 / 115 40% 1 30.11.2027 -
Kévin Denkey FC Cincinnati Активный 131 / 125 40% 5 29.11.2027 -
Santiago Sala Güemes Активный 118 / 118 40% 4 29.11.2027 -
Fernando Mimbacas Juventud Активный 115 / 109 40% 2 29.11.2027 -
Luca Langoni Colorado Rapids Активный 131 / 130 40% 6 28.11.2027 -
Max Fenger IFK Goteborg Активный 122 / 132 40% 2 28.11.2027 -
Sebastián Ramírez Jaguares Активный 111 / 104 40% 1 25.11.2027 -
Armindo Sieb Los Angeles Football Club Активный 118 / 118 40% 3 24.11.2027 -
Paulos Abraham Hammarby Активный 119 / 115 40% 4 24.11.2027 -
Gustavo Santos Krasnodar Активный 126 / 127 40% 1 24.11.2027 -
Mateus Mané Manchester United Активный 140 / 141 40% 1 24.11.2027 -
Olívio Tomé Benfica Активный 120 / 118 40% 1 23.11.2027 -
Mads Bomholt Stabaek Активный 115 / 120 40% 3 22.11.2027 -
Diogo Guzmán Montevideo City Torque Активный 113 / 114 40% 7 20.11.2027 -
Santiago Apa All Boys Активный 107 / 113 40% 3 19.11.2027 -
Misael Sosa Godoy Cruz Активный 116 / 123 40% 3 19.11.2027 -
Alejo Cruz Juventud Активный 129 / 132 40% 3 19.11.2027 -
Leonardo Campana New England Revolution Активный 132 / 123 40% 1 17.11.2027 -
Bénie Traoré New York City Активный 130 / 135 40% 4 14.11.2027 -
Alan Velasco Boca Juniors Активный 129 / 141 40% 2 13.11.2027 -
Louis Munteanu DC United Активный 138 / 126 40% 4 12.11.2027 -
Luciano Cosentino Wanderers Активный 130 / 126 40% 4 12.11.2027 -
Franco Minerva Platense Активный 109 / 125 40% 2 11.11.2027 -
Igor Tyjon Doncaster Rovers Активный 107 / 122 40% 1 11.11.2027 -
Emiliano Saliadarre Miramar Misiones Активный 109 / 106 40% 2 09.11.2027 -
Jáder Valencia Deportes Tolima Активный 119 / 114 40% 2 07.11.2027 -
Giovanni Cantizano Rosario Central Активный 119 / 119 40% 1 06.11.2027 -
Alexis Cuello San Lorenzo Активный 126 / 133 40% 4 04.11.2027 -
Alexander Díaz Deportivo Riestra Активный 117 / 113 40% 2 04.11.2027 -
Theo Corbeanu Toronto FC Активный 124 / 128 40% 2 03.11.2027 -
Ibrahim Aliyu Houston Dynamo Активный 119 / 127 40% 5 02.11.2027 -
Agustín Módica Gimnasia y Esgrima Активный 129 / 121 40% 2 01.11.2027 -
Indiana Vassilev Philadelphia Union Активный 122 / 117 40% 1 31.10.2027 -
Jesus Ferreira Seattle Sounders Активный 141 / 131 40% 1 29.10.2027 -
Luca Martínez Dupuy Godoy Cruz Активный 126 / 127 40% 1 27.10.2027 -
Kelvin Flórez Atletico Bucaramanga Активный 124 / 120 40% 2 24.10.2027 -
Fredrik Ardraa Stromsgodset Активный 106 / 104 40% 1 23.10.2027 -
Augusto Berrondo Tristán Suárez Активный 119 / 116 40% 2 22.10.2027 -
Josh Sargent Toronto FC Активный 140 / 141 40% 1 22.10.2027 -
Giovanni Baroni Talleres Активный 103 / 125 40% 4 15.10.2027 -
Bop Guèye Haugesund Активный 107 / 121 40% 2 15.10.2027 -
Mfundo Vilakazi Kaizer Chiefs Активный 119 / 113 40% 2 14.10.2027 -
Bautista Tomatis Racing Активный 120 / 114 40% 1 11.10.2027 -
Diego García Malmo FF Активный 125 / 124 40% 1 10.10.2027 -
Enzo Cabrera Danubio Активный 108 / 116 40% 2 09.10.2027 -
Sebastián Cocimano Nueva Chicago Активный 112 / 103 40% 3 09.10.2027 -
Rodrigo Villalba River Plate Активный 103 / 107 40% 1 08.10.2027 -
Kevin Angulo America de Cali Активный 107 / 100 40% 1 08.10.2027 -
Negueba Mirassol Активный 126 / 133 40% 1 04.10.2027 -
Nəriman Axundzadə Columbus Crew Активный 134 / 117 40% 2 01.10.2027 -
Migouel Alfarela Kifisia Активный 123 / 123 42% 1 / 1m 29.09.2027 -
Konstantinos Apostolakis Kifisia Активный 111 / 111 42% 1 / 1m 29.09.2027 -
Gerson Sousa Kifisia Активный 117 / 117 30% 1 / 1m 29.09.2027 -
Matías Lozano Deportivo Pasto Активный 106 / 109 40% 1 29.09.2027 -
Joel Ezra Enyimba Активный 88 / 92 40% 1 28.09.2027 -
Luis Otávio Colorado Rapids Активный 114 / 120 40% 1 28.09.2027 -
Timofey Simanenka Gomel Активный 94 / 106 40% 1 26.09.2027 -
Dylan Cabral Arsenal Активный 97 / 95 40% 1 24.09.2027 -
Musa Malik Ikorodu City Активный 93 / 101 40% 1 22.09.2027 -
Ruben Ramos LA Galaxy Активный 102 / 96 40% 1 22.09.2027 -
Othmane Maamma Watford Активный 129 / 129 40% 8 21.09.2027 -
Cristian Florez Cortulua Активный 99 / 108 40% 1 21.09.2027 -
Joel Medina Independiente Активный 107 / 113 40% 1 15.09.2027 -
Jardell Kanga Ilves Активный 92 / 117 40% 1 15.09.2027 -
Andrés Amaya Fortaleza CEIF Активный 118 / 111 40% 1 06.09.2027 -
Matheuzinho Corinthians Активный 125 / 141 40% 1 31.08.2027 -
Fredrik Bjørkan Bodo/Glimt Активный 128 / 135 40% 1 31.08.2027 -
Rhian Brewster Oxford United Активный 129 / 126 40% 2 09.08.2027 -
Fabrizio Cavegn Bristol Rovers Активный 112 / 109 40% 1 09.08.2027 -
Santiago Pierotti Lecce Активный 134 / 129 40% 1 28.07.2027 -
Cameron Archer Southampton Активный 135 / 136 40% 1 28.07.2027 -
Yousef Salech Cardiff City Активный 131 / 135 40% 1 12.07.2027 -
Majid Beiranvand Rah Ahan Активный 114 / 107 40% 1 03.07.2027 -
Karim Karimi Siah Jamegan Активный 116 / 104 40% 1 30.06.2027 -
Josh Coburn Millwall Активный 121 / 128 40% 1 30.06.2027 -
Álvaro Rodríguez Bournemouth Активный 137 / 133 40% 2 23.06.2027 -
Tomás González Piast Активный 114 / 124 40% 1 23.06.2027 -
Jovon Makama Norwich City Активный 125 / 131 40% 1 23.06.2027 -
David Romero Parma Активный 122 / 123 40% 1 22.06.2027 -
Tino Kadewere Aris Thessaloniki Активный 116 / 117 76% 1 14.06.2027 За
Dale Taylor Blackpool Активный 110 / 113 40% 1 14.06.2027 -
Dean Henderson Crystal Palace Активный 153 / 158 40% 1 30.05.2027 -
Romano Schmid Frosinone Активный 146 / 144 40% 4 29.05.2027 -
Callum O'Hare Sheffield United Активный 130 / 132 40% 2 27.05.2027 -
Tom Fellows Southampton Активный 130 / 129 40% 2 26.05.2027 -
Alex Meret Napoli Активный 156 / 155 40% 2 24.05.2027 -
Vladan Kovačević Norwich City Активный 119 / 125 40% 1 24.05.2027 -
Finn Azaz Southampton Активный 135 / 121 40% 3 23.05.2027 -
Derensili Sanches Fernandes Huddersfield Town Активный 125 / 129 40% 7 23.05.2027 -
Jason Knight Bristol City Активный 130 / 134 40% 2 23.05.2027 -
James Trafford Leeds United Активный 150 / 140 40% 2 22.05.2027 -
Mateusz Kochalski Dynamo Kyiv Активный 139 / 131 40% 1 22.05.2027 -
Simone Scuffet Pisa Активный 134 / 127 40% 3 21.05.2027 -
Martin Jedlička Banik Ostrava Активный 124 / 124 40% 1 21.05.2027 -
Jonathan Klinsmann Cesena Активный 126 / 134 40% 2 20.05.2027 -
Nicolas Schmid Portsmouth Активный 126 / 122 40% 3 20.05.2027 -
Michele Cerofolini Bari Активный 131 / 133 40% 1 20.05.2027 -
Arijanet Murić Sassuolo Активный 138 / 140 40% 3 19.05.2027 -
Kyrylo Fesiun Shakhtar Активный 122 / 124 40% 2 19.05.2027 -
Grégoire Coudert Burnley Активный 132 / 128 40% 2 19.05.2027 -
Marquinhos APOEL Активный 140 / 136 40% 5 18.05.2027 -
Hwang Hee-Chan Wolverhampton Активный 134 / 137 40% 2 18.05.2027 -
Tommy Conway Middlesbrough Активный 131 / 128 40% 1 18.05.2027 -
Welington Southampton Активный 133 / 125 40% 5 17.05.2027 -
Jack Currie Oxford United Активный 127 / 123 40% 2 17.05.2027 -
Tariq Lamptey Queens Park Rangers Активный 139 / 140 40% 2 17.05.2027 -
Justin Bijlow Genoa Активный 145 / 141 40% 1 17.05.2027 -
Harrison Burrows Sheffield United Активный 123 / 130 40% 1 17.05.2027 -
Giorgi Chakvetadze Watford Активный 124 / 122 40% 4 16.05.2027 -
Mohamed-Ali Cho Hull City Активный 137 / 142 40% 5 16.05.2027 -
Derry Murkin Derby County Активный 123 / 132 40% 4 13.05.2027 -
Ronald Swansea City Активный 127 / 129 40% 4 13.05.2027 -
Zeidane Inoussa Swansea City Активный 118 / 122 40% 1 13.05.2027 -
Jacob Greaves Ipswich Town Активный 136 / 132 40% 3 12.05.2027 -
Florentino Luís Ipswich Town Активный 140 / 135 40% 3 12.05.2027 -
Sorba Thomas Stoke City Активный 131 / 128 40% 3 12.05.2027 -
Tatsuhiro Sakamoto Coventry City Активный 127 / 132 40% 1 12.05.2027 -
Habib Diarra Sunderland Активный 137 / 144 40% 1 12.05.2027 -
Ethan Galbraith Swansea City Активный 129 / 136 40% 6 09.05.2027 -
Max Bird Birmingham Активный 130 / 137 40% 3 09.05.2027 -
Richard Koné Queens Park Rangers Активный 129 / 123 40% 1 09.05.2027 -
Morgan Whittaker Middlesbrough Активный 134 / 127 40% 8 07.05.2027 -
Marcelo Allende Mamelodi Sundowns Активный 132 / 129 40% 4 07.05.2027 -
Caleb Yirenkyi Coventry City Активный 130 / 139 40% 1 07.05.2027 -
Lewis Bate Stockport County Активный 126 / 127 40% 1 05.05.2027 -
Isaiah Jones Luton Town Активный 127 / 117 40% 3 01.05.2027 -
Domenico Berardi Sassuolo Активный 141 / 146 40% 1 29.04.2027 -
Zian Flemming Ipswich Town Активный 135 / 132 40% 1 28.04.2027 -
Callum Brittain Middlesbrough Активный 135 / 130 40% 1 28.04.2027 -
Fahad Hassan Al Shabab Активный 120 / 122 40% 1 28.04.2027 -
Edoardo Motta Lazio Активный 124 / 131 40% 1 28.04.2027 -
Heorhii Bushchan Polissia Активный 130 / 126 40% 1 28.04.2027 -
Kazunari Kita Real Sociedad Активный 97 / 101 40% 1 27.04.2027 -
Davide Bartesaghi AC Milan Активный 132 / 128 40% 1 27.04.2027 -
Sascha Britschgi Padova Активный 116 / 125 40% 1 27.04.2027 -
Percy Jali Free State Stars Активный 102 / 111 40% 2 26.04.2027 -
Christ Inao Oulaï Fiorentina Активный 137 / 140 40% 1 26.04.2027 -
Daniel Iversen Preston Активный 129 / 132 40% 1 24.04.2027 -
Egil Selvik Watford Активный 128 / 124 40% 2 22.04.2027 -
Ali Ahmed Norwich City Активный 121 / 117 40% 1 22.04.2027 -
Nikola Vasilj Al-Diriyah Активный 129 / 131 40% 1 19.04.2027 -
Ricardo Velho Aris Thessaloniki Активный 128 / 118 40% 1 18.04.2027 -
Lewis Morgan SuperSport United Активный 123 / 134 40% 3 17.04.2027 -
Matías Gómez Granada Активный 110 / 120 40% 1 17.04.2027 -
Kwadwo Baah Watford Активный 125 / 129 40% 5 12.04.2027 -
Georges-Kévin Nkoudou Al-Diriyah Активный 129 / 136 40% 5 11.04.2027 -
Milan van Ewijk Mansfield Town Активный 127 / 138 40% 2 10.04.2027 -
Ilyas Ansah Hull City Активный 137 / 132 40% 1 10.04.2027 -
Kayne Ramsay Charlton Athletic Активный 128 / 127 40% 1 10.04.2027 -
Edoardo Bove Watford Активный 133 / 124 40% 1 10.04.2027 -
Max Meyer APOEL Активный 126 / 118 40% 3 08.04.2027 -
Bertrand Traoré Sunderland Активный 131 / 133 40% 1 08.04.2027 -
Adam Bakoune Ospitaletto Активный 95 / 104 40% 1 07.04.2027 -
Panagiotis Markou Doxa Активный 102 / 92 40% 1 07.04.2027 -
Hélio Varela Maccabi Tel Aviv Активный 118 / 116 40% 2 04.04.2027 -
Pelle Mattsson Norwich City Активный 128 / 127 40% 1 04.04.2027 -
Mandla Erasmus SuperSport United Активный 110 / 116 40% 1 04.04.2027 -
Di'Shon Bernard Sheffield Wednesday Активный 120 / 114 40% 1 03.04.2027 -
Adilson Malanda Middlesbrough Активный 133 / 129 40% 1 03.04.2027 -
Kwame Poku Queens Park Rangers Активный 128 / 127 40% 1 31.03.2027 -
Joe Gelhardt Hull City Активный 128 / 139 40% 2 26.03.2027 -
Shea Charles Southampton Активный 134 / 144 40% 3 25.03.2027 -
Marquinhos Spartak Moscow Активный 128 / 122 40% 3 24.03.2027 -
Scott Twine Bristol City Активный 123 / 119 40% 3 24.03.2027 -
Jack McGlynn Stoke City Активный 128 / 126 40% 2 21.03.2027 -
Noah Sadiki Sunderland Активный 141 / 141 40% 1 21.03.2027 -
Kasey McAteer Ipswich Town Активный 136 / 125 40% 1 21.03.2027 -
Sondre Langås Derby County Активный 131 / 126 40% 1 19.03.2027 -
Will Smallbone Southampton Активный 124 / 129 40% 1 19.03.2027 -
Riley McGree Middlesbrough Активный 127 / 137 40% 1 15.03.2027 -
Leif Davis Ipswich Town Активный 140 / 137 40% 3 14.03.2027 -
Hany Mukhtar Spezia Активный 141 / 133 40% 2 14.03.2027 Нужно больше данных
Harry Clarke Preston Активный 123 / 127 40% 2 13.03.2027 -
Marlon Gomes Shakhtar Активный 134 / 142 40% 1 13.03.2027 -
Anel Ahmedhodžić Burnley Активный 134 / 142 40% 1 11.03.2027 -
Jhon Jhon Zenit Активный 136 / 132 40% 2 05.03.2027 -
Mikey Johnston West Bromwich Albion Активный 120 / 122 40% 1 04.03.2027 -
Nicolò Cambiaghi Bologna Активный 137 / 132 40% 1 03.03.2027 -
Mohau Nkota Al-Ettifaq Активный 127 / 115 40% 1 02.03.2027 -
Sayfallah Ltaief Cracovia Активный 129 / 123 40% 1 02.03.2027 -
Tyrese Campbell Sheffield United Активный 123 / 132 40% 1 02.03.2027 -
Sergio Lozano Jagiellonia Активный 126 / 129 40% 1 25.02.2027 -
Million Manhoef Stoke City Активный 129 / 126 40% 1 25.02.2027 -
Patrik Wålemark Lech Активный 133 / 120 40% 1 24.02.2027 -
Josh Tymon Swansea City Активный 127 / 129 40% 3 23.02.2027 -
Femi Seriki Sheffield United Активный 122 / 128 40% 1 23.02.2027 -
Bradley Tau SuperSport United Активный 120 / 127 40% 1 21.02.2027 -
Gustavo Mantuan Zenit Активный 128 / 125 40% 1 21.02.2027 -
Petar Stanić Ludogorets Активный 134 / 132 40% 1 19.02.2027 -
Alexandr Chernikov Krasnodar Активный 126 / 130 40% 1 18.02.2027 -
Matheus Gonçalves Al-Ahli Активный 127 / 125 40% 2 16.02.2027 -
Kristoffer Lund Birmingham Активный 127 / 123 40% 1 15.02.2027 -
Ki-Jana Hoever Sparta Prague Активный 132 / 133 40% 1 12.02.2027 -
Toby Collyer West Bromwich Albion Активный 135 / 131 40% 1 07.02.2027 -
Oliver Skipp Leicester City Активный 128 / 132 40% 1 07.02.2027 -
Emanuel Aiwu Apollon Активный 114 / 123 40% 1 05.02.2027 -
Nazar Voloshyn Dynamo Kyiv Активный 130 / 130 40% 1 03.02.2027 -
Will Fish Cardiff City Активный 121 / 130 40% 1 02.02.2027 -
Rubens Dinamo Moscow Активный 133 / 124 40% 1 02.02.2027 -
Jacques Ekomié Wrexham Активный 133 / 132 40% 1 01.02.2027 -
Tomáš Rigo Stoke City Активный 136 / 126 40% 1 26.01.2027 -
Isaac Price West Bromwich Albion Активный 127 / 129 40% 1 18.01.2027 -
Christian Krasnodar Активный 141 / 133 40% 1 11.01.2027 -
Ivan Toney Al-Ahli Активный 145 / 151 40% 1 31.12.2026 -
Yusuke Matsuo Esteghlal Активный 131 / 133 40% 1 31.12.2026 -
Musa Barrow Al-Khaleej Активный 125 / 146 40% 1 01.08.2026 -
Deniz Undav VfB Stuttgart Активный 153 / 147 40% 1 01.08.2026 -